createdAt,value
2022-11-15T00:00:37.711Z,83.50
2022-11-15T00:02:09.638Z,83.60
2022-11-15T00:03:41.556Z,83.42
2022-11-15T00:05:13.486Z,83.69
2022-11-15T00:06:45.334Z,83.52
2022-11-15T00:08:17.356Z,83.62
2022-11-15T00:09:49.287Z,83.46
2022-11-15T00:11:21.200Z,83.47
2022-11-15T00:12:53.014Z,83.64
2022-11-15T00:14:24.811Z,83.61
2022-11-15T00:17:28.424Z,83.67
2022-11-15T00:19:00.332Z,83.62
2022-11-15T00:20:35.197Z,83.81
2022-11-15T00:22:07.028Z,83.67
2022-11-15T00:23:38.936Z,83.81
2022-11-15T00:25:10.735Z,84.13
2022-11-15T00:26:42.575Z,83.96
2022-11-15T00:28:14.601Z,84.02
2022-11-15T00:29:46.576Z,84.36
2022-11-15T00:31:18.505Z,84.12
2022-11-15T00:32:50.576Z,84.45
2022-11-15T00:34:22.487Z,84.26
2022-11-15T00:35:54.450Z,84.14
2022-11-15T00:37:26.427Z,84.33
2022-11-15T00:38:58.324Z,84.36
2022-11-15T00:40:30.336Z,84.19
2022-11-15T00:42:02.420Z,84.51
2022-11-15T00:43:34.428Z,84.35
2022-11-15T00:45:06.595Z,84.22
2022-11-15T00:46:38.457Z,84.42
2022-11-15T00:48:10.719Z,84.33
2022-11-15T00:49:43.142Z,84.43
2022-11-15T00:51:15.053Z,84.66
2022-11-15T00:52:46.961Z,84.71
2022-11-15T00:54:18.774Z,84.53
2022-11-15T00:55:50.655Z,84.66
2022-11-15T00:57:22.784Z,84.95
2022-11-15T00:58:54.785Z,84.99
2022-11-15T01:00:26.822Z,84.90
2022-11-15T01:01:58.624Z,84.98
2022-11-15T01:03:31.810Z,84.92
2022-11-15T01:05:03.978Z,85.18
2022-11-15T01:06:35.780Z,85.26
2022-11-15T01:08:07.642Z,85.25
2022-11-15T01:09:39.522Z,85.11
2022-11-15T01:11:12.393Z,85.12
2022-11-15T01:12:44.277Z,85.01
2022-11-15T01:14:16.028Z,85.19
2022-11-15T01:15:47.860Z,84.97
2022-11-15T01:17:19.803Z,85.01
2022-11-15T01:18:51.785Z,85.00
2022-11-15T01:20:23.641Z,85.00
2022-11-15T01:21:55.494Z,85.15
2022-11-15T01:23:27.374Z,84.93
2022-11-15T01:24:59.267Z,84.94
2022-11-15T01:26:31.119Z,85.04
2022-11-15T01:28:03.041Z,85.07
2022-11-15T01:29:34.871Z,85.22
2022-11-15T01:31:08.097Z,85.06
2022-11-15T01:32:39.830Z,85.15
2022-11-15T01:34:11.717Z,85.33
2022-11-15T01:35:43.567Z,85.14
2022-11-15T01:37:15.324Z,84.96
2022-11-15T01:38:47.120Z,84.99
2022-11-15T01:40:18.955Z,85.05
2022-11-15T01:41:50.757Z,84.97
2022-11-15T01:43:33.049Z,85.40
2022-11-15T01:46:37.033Z,85.26
2022-11-15T01:48:08.841Z,85.30
2022-11-15T01:49:41.245Z,85.50
2022-11-15T01:51:13.305Z,85.76
2022-11-15T01:52:45.244Z,85.75
2022-11-15T01:54:17.760Z,85.58
2022-11-15T01:55:49.690Z,85.82
2022-11-15T01:57:21.559Z,85.83
2022-11-15T01:58:53.509Z,85.63
2022-11-15T02:00:25.504Z,85.47
2022-11-15T02:01:57.521Z,85.33
2022-11-15T02:03:33.193Z,85.27
2022-11-15T02:05:05.338Z,85.25
2022-11-15T02:06:37.255Z,85.08
2022-11-15T02:08:09.798Z,85.23
2022-11-15T02:09:41.602Z,85.35
2022-11-15T02:11:13.478Z,85.36
2022-11-15T02:12:45.250Z,85.45
2022-11-15T02:14:17.167Z,85.20
2022-11-15T02:16:03.311Z,85.34
2022-11-15T02:17:50.378Z,85.34
2022-11-15T02:19:34.397Z,85.58
2022-11-15T02:21:12.173Z,85.47
2022-11-15T02:22:47.029Z,85.87
2022-11-15T02:24:26.144Z,86.04
2022-11-15T02:26:16.501Z,86.24
2022-11-15T02:28:07.358Z,86.47
2022-11-15T02:29:58.104Z,86.54
2022-11-15T02:31:31.511Z,86.60
2022-11-15T02:33:26.559Z,86.92
2022-11-15T02:35:09.835Z,87.04
2022-11-15T02:36:43.174Z,86.85
2022-11-15T02:38:18.103Z,87.24
2022-11-15T02:39:54.439Z,87.20
2022-11-15T02:41:33.062Z,86.89
2022-11-15T02:43:35.117Z,86.96
2022-11-15T02:45:07.981Z,86.79
2022-11-15T02:47:02.102Z,86.67
2022-11-15T02:48:33.924Z,86.60
2022-11-15T02:50:08.555Z,86.63
2022-11-15T02:51:40.387Z,86.93
2022-11-15T02:53:12.156Z,86.74
2022-11-15T02:54:44.243Z,86.89
2022-11-15T02:56:16.016Z,86.92
2022-11-15T02:57:54.248Z,86.83
2022-11-15T02:59:29.531Z,86.78
2022-11-15T03:01:06.331Z,86.84
2022-11-15T03:02:44.903Z,86.90
2022-11-15T03:04:35.656Z,86.75
2022-11-15T03:06:07.546Z,86.88
2022-11-15T03:07:45.634Z,86.84
2022-11-15T03:09:26.791Z,86.72
2022-11-15T03:11:11.576Z,86.52
2022-11-15T03:12:45.870Z,86.70
2022-11-15T03:14:17.679Z,86.54
2022-11-15T03:15:55.243Z,86.29
2022-11-15T03:17:30.624Z,86.46
2022-11-15T03:19:13.768Z,86.62
2022-11-15T03:20:45.613Z,86.47
2022-11-15T03:22:18.438Z,86.67
2022-11-15T03:23:50.374Z,86.59
2022-11-15T03:25:23.508Z,86.90
2022-11-15T03:26:55.519Z,86.77
2022-11-15T03:28:29.776Z,86.39
2022-11-15T03:30:02.450Z,86.30
2022-11-15T03:31:51.183Z,86.09
2022-11-15T03:33:23.538Z,85.78
2022-11-15T03:35:06.726Z,85.54
2022-11-15T03:36:38.588Z,85.59
2022-11-15T03:38:16.364Z,85.41
2022-11-15T03:39:50.026Z,85.47
2022-11-15T03:41:23.891Z,85.32
2022-11-15T03:43:01.408Z,85.20
2022-11-15T03:44:36.430Z,85.15
2022-11-15T03:46:15.459Z,85.08
2022-11-15T03:47:48.731Z,85.26
2022-11-15T03:51:00.137Z,85.10
2022-11-15T03:52:33.296Z,84.99
2022-11-15T03:54:05.674Z,85.07
2022-11-15T03:55:37.518Z,85.19
2022-11-15T03:57:09.302Z,84.98
2022-11-15T03:58:41.242Z,85.07
2022-11-15T04:00:13.267Z,85.03
2022-11-15T04:01:45.117Z,85.10
2022-11-15T04:03:17.035Z,85.05
2022-11-15T04:04:48.921Z,85.06
2022-11-15T04:06:20.782Z,85.19
2022-11-15T04:07:52.686Z,84.92
2022-11-15T04:09:24.851Z,85.06
2022-11-15T04:10:56.879Z,85.26
2022-11-15T04:12:32.129Z,85.62
2022-11-15T04:14:04.054Z,85.75
2022-11-15T04:15:36.011Z,85.57
2022-11-15T04:17:07.896Z,85.68
2022-11-15T04:18:39.880Z,85.62
2022-11-15T04:20:36.174Z,85.92
2022-11-15T04:22:27.405Z,85.90
2022-11-15T04:24:11.197Z,85.97
2022-11-15T04:25:43.506Z,86.09
2022-11-15T04:27:15.469Z,86.30
2022-11-15T04:29:05.786Z,86.28
2022-11-15T04:30:37.796Z,86.20
2022-11-15T04:32:09.713Z,86.42
2022-11-15T04:33:41.543Z,86.29
2022-11-15T04:35:13.492Z,86.52
2022-11-15T04:37:04.015Z,86.32
2022-11-15T04:38:38.012Z,86.17
2022-11-15T04:40:09.948Z,85.92
2022-11-15T04:41:44.276Z,85.91
2022-11-15T04:43:16.165Z,85.92
2022-11-15T04:44:48.152Z,86.30
2022-11-15T04:46:20.072Z,86.21
2022-11-15T04:47:52.159Z,86.24
2022-11-15T04:49:23.990Z,86.40
2022-11-15T04:50:55.872Z,86.32
2022-11-15T04:52:29.903Z,86.20
2022-11-15T04:54:01.935Z,86.42
2022-11-15T04:55:33.802Z,86.36
2022-11-15T04:57:05.618Z,86.48
2022-11-15T04:58:37.857Z,86.43
2022-11-15T05:00:11.946Z,86.19
2022-11-15T05:01:45.298Z,85.99
2022-11-15T05:03:35.987Z,85.89
2022-11-15T05:05:08.021Z,86.13
2022-11-15T05:06:39.819Z,86.28
2022-11-15T05:08:11.690Z,86.09
2022-11-15T05:09:43.536Z,86.41
2022-11-15T05:11:15.521Z,86.55
2022-11-15T05:12:47.860Z,86.27
2022-11-15T05:14:19.756Z,86.21
2022-11-15T05:15:51.696Z,86.08
2022-11-15T05:17:29.357Z,85.73
2022-11-15T05:19:01.262Z,86.01
2022-11-15T05:20:33.422Z,86.13
2022-11-15T05:22:05.301Z,86.24
2022-11-15T05:23:37.356Z,86.08
2022-11-15T05:25:09.558Z,86.11
2022-11-15T05:26:41.695Z,85.89
2022-11-15T05:28:14.084Z,86.22
2022-11-15T05:29:46.052Z,85.98
2022-11-15T05:31:18.117Z,85.95
2022-11-15T05:32:50.057Z,85.78
2022-11-15T05:34:23.977Z,86.16
2022-11-15T05:35:56.540Z,85.82
2022-11-15T05:37:28.316Z,85.63
2022-11-15T05:39:00.160Z,85.73
2022-11-15T05:40:32.088Z,85.45
2022-11-15T05:42:13.369Z,85.58
2022-11-15T05:43:45.248Z,85.66
2022-11-15T05:45:17.951Z,85.81
2022-11-15T05:46:52.188Z,85.82
2022-11-15T05:48:24.013Z,85.92
2022-11-15T05:49:55.971Z,85.71
2022-11-15T05:51:27.873Z,85.65
2022-11-15T05:53:04.614Z,85.64
2022-11-15T05:54:36.875Z,85.72
2022-11-15T05:56:09.659Z,85.95
2022-11-15T05:57:41.651Z,85.75
2022-11-15T05:59:13.838Z,85.87
2022-11-15T06:00:45.786Z,85.84
2022-11-15T06:02:17.845Z,85.80
2022-11-15T06:03:49.778Z,85.85
2022-11-15T06:05:21.654Z,85.78
2022-11-15T06:06:53.624Z,85.80
2022-11-15T06:08:25.546Z,86.12
2022-11-15T06:09:59.890Z,86.06
2022-11-15T06:11:31.758Z,86.57
2022-11-15T06:13:04.545Z,86.33
2022-11-15T06:14:36.344Z,86.34
2022-11-15T06:16:08.397Z,86.23
2022-11-15T06:17:40.393Z,86.61
2022-11-15T06:19:12.239Z,86.36
2022-11-15T06:20:44.129Z,86.19
2022-11-15T06:22:16.028Z,86.34
2022-11-15T06:23:47.993Z,86.28
2022-11-15T06:25:19.884Z,86.32
2022-11-15T06:26:53.877Z,86.41
2022-11-15T06:28:26.807Z,86.53
2022-11-15T06:29:58.860Z,86.15
2022-11-15T06:31:30.951Z,86.13
2022-11-15T06:33:03.265Z,85.96
2022-11-15T06:34:37.179Z,85.89
2022-11-15T06:36:16.075Z,86.02
2022-11-15T06:37:49.360Z,85.89
2022-11-15T06:39:21.832Z,85.76
2022-11-15T06:40:53.685Z,85.85
2022-11-15T06:42:25.664Z,85.67
2022-11-15T06:43:58.259Z,85.92
2022-11-15T06:45:30.254Z,85.68
2022-11-15T06:47:02.228Z,85.37
2022-11-15T06:48:34.456Z,85.30
2022-11-15T06:50:06.618Z,85.42
2022-11-15T06:51:38.480Z,84.99
2022-11-15T06:53:10.332Z,84.98
2022-11-15T06:54:42.275Z,84.42
2022-11-15T06:56:14.215Z,84.34
2022-11-15T06:57:53.454Z,84.38
2022-11-15T06:59:25.335Z,84.12
2022-11-15T07:01:04.017Z,84.17
2022-11-15T07:02:35.985Z,84.12
2022-11-15T07:04:07.887Z,83.94
2022-11-15T07:05:39.837Z,84.24
2022-11-15T07:07:12.002Z,84.00
2022-11-15T07:08:43.846Z,84.11
2022-11-15T07:10:17.283Z,83.91
2022-11-15T07:11:49.167Z,83.49
2022-11-15T07:13:21.114Z,83.38
2022-11-15T07:14:53.090Z,83.40
2022-11-15T07:16:25.058Z,83.42
2022-11-15T07:18:02.894Z,83.41
2022-11-15T07:19:34.768Z,83.28
2022-11-15T07:21:07.314Z,83.13
2022-11-15T07:22:39.173Z,82.77
2022-11-15T07:24:13.535Z,83.19
2022-11-15T07:25:45.392Z,83.16
2022-11-15T07:27:17.407Z,82.81
2022-11-15T07:28:49.752Z,82.78
2022-11-15T07:30:21.779Z,82.46
2022-11-15T07:31:53.853Z,82.53
2022-11-15T07:33:25.858Z,82.57
2022-11-15T07:34:57.821Z,82.30
2022-11-15T07:36:29.867Z,82.21
2022-11-15T07:38:02.655Z,82.48
2022-11-15T07:39:34.547Z,82.64
2022-11-15T07:41:06.616Z,82.25
2022-11-15T07:42:57.549Z,82.22
2022-11-15T07:44:29.499Z,82.34
2022-11-15T07:46:05.568Z,82.22
2022-11-15T07:47:37.499Z,82.23
2022-11-15T07:49:09.531Z,82.11
2022-11-15T07:52:14.680Z,82.08
2022-11-15T07:53:46.573Z,81.88
2022-11-15T07:55:18.478Z,81.86
2022-11-15T07:56:50.497Z,81.82
2022-11-15T07:58:22.382Z,81.93
2022-11-15T07:59:54.397Z,81.76
2022-11-15T08:01:26.510Z,81.74
2022-11-15T08:03:11.835Z,81.79
2022-11-15T08:04:43.865Z,81.78
2022-11-15T08:06:16.172Z,81.98
2022-11-15T08:07:48.038Z,82.09
2022-11-15T08:09:20.081Z,82.40
2022-11-15T08:10:52.117Z,82.44
2022-11-15T08:12:24.234Z,82.27
2022-11-15T08:13:56.182Z,82.55
2022-11-15T08:15:28.428Z,82.35
2022-11-15T08:17:00.260Z,82.65
2022-11-15T08:18:32.357Z,82.79
2022-11-15T08:21:36.685Z,83.13
2022-11-15T08:23:09.171Z,82.82
2022-11-15T08:24:41.667Z,82.92
2022-11-15T08:26:13.642Z,82.64
2022-11-15T08:27:45.789Z,82.70
2022-11-15T08:29:17.817Z,82.39
2022-11-15T08:30:49.712Z,82.47
2022-11-15T08:32:21.756Z,82.30
2022-11-15T08:33:53.601Z,82.42
2022-11-15T08:35:28.992Z,82.57
2022-11-15T08:37:01.692Z,82.06
2022-11-15T08:38:34.779Z,81.93
2022-11-15T08:40:07.226Z,82.16
2022-11-15T08:41:39.496Z,82.04
2022-11-15T08:43:11.568Z,81.81
2022-11-15T08:44:43.874Z,81.80
2022-11-15T08:46:16.140Z,82.10
2022-11-15T08:47:53.788Z,81.92
2022-11-15T08:49:26.365Z,82.01
2022-11-15T08:50:58.502Z,81.95
2022-11-15T08:52:30.420Z,82.24
2022-11-15T08:54:02.284Z,82.25
2022-11-15T08:55:34.332Z,82.25
2022-11-15T08:57:06.294Z,82.31
2022-11-15T08:58:38.181Z,81.99
2022-11-15T09:00:10.471Z,82.03
2022-11-15T09:01:42.487Z,82.05
2022-11-15T09:03:17.020Z,82.33
2022-11-15T09:04:49.543Z,82.29
2022-11-15T09:06:21.657Z,82.05
2022-11-15T09:07:56.663Z,82.25
2022-11-15T09:09:28.762Z,82.36
2022-11-15T09:11:03.889Z,82.13
2022-11-15T09:12:36.490Z,82.20
2022-11-15T09:14:08.403Z,82.10
2022-11-15T09:15:40.528Z,81.79
2022-11-15T09:17:12.812Z,81.92
2022-11-15T09:18:44.917Z,82.11
2022-11-15T09:20:17.151Z,82.14
2022-11-15T09:21:49.405Z,82.26
2022-11-15T09:23:21.419Z,82.22
2022-11-15T09:24:53.398Z,81.59
2022-11-15T09:26:25.543Z,81.97
2022-11-15T09:29:43.911Z,82.05
2022-11-15T09:31:21.064Z,81.98
2022-11-15T09:32:54.010Z,81.88
2022-11-15T09:34:26.040Z,81.68
2022-11-15T09:36:01.466Z,81.54
2022-11-15T09:37:33.765Z,81.35
2022-11-15T09:39:05.735Z,81.04
2022-11-15T09:40:38.380Z,80.65
2022-11-15T09:42:15.994Z,80.59
2022-11-15T09:43:47.974Z,80.20
2022-11-15T09:45:33.577Z,80.59
2022-11-15T09:47:28.261Z,80.60
2022-11-15T09:49:01.093Z,80.76
2022-11-15T09:50:38.149Z,80.45
2022-11-15T09:52:10.407Z,80.42
2022-11-15T09:55:22.758Z,80.92
2022-11-15T09:56:55.167Z,80.89
2022-11-15T09:58:35.838Z,80.54
2022-11-15T10:00:45.292Z,80.39
2022-11-15T10:02:32.159Z,80.48
2022-11-15T10:04:07.813Z,80.48
2022-11-15T10:05:48.901Z,80.39
2022-11-15T10:07:23.272Z,80.08
2022-11-15T10:08:57.316Z,79.80
2022-11-15T10:10:32.028Z,79.75
2022-11-15T10:12:04.119Z,79.43
2022-11-15T10:13:37.143Z,79.53
2022-11-15T10:15:13.440Z,79.75
2022-11-15T10:17:04.000Z,79.48
2022-11-15T10:18:36.647Z,79.46
2022-11-15T10:20:12.182Z,79.42
2022-11-15T10:22:13.255Z,79.15
2022-11-15T10:23:45.122Z,79.29
2022-11-15T10:25:22.267Z,79.36
2022-11-15T10:26:54.184Z,79.50
2022-11-15T10:29:58.942Z,79.43
2022-11-15T10:31:31.108Z,79.41
2022-11-15T10:33:23.285Z,79.51
2022-11-15T10:34:55.190Z,79.80
2022-11-15T10:36:30.031Z,79.58
2022-11-15T10:38:09.007Z,79.84
2022-11-15T10:39:41.084Z,79.87
2022-11-15T10:43:27.579Z,79.88
2022-11-15T10:44:59.548Z,80.03
2022-11-15T10:46:46.284Z,79.64
2022-11-15T10:48:19.277Z,79.31
2022-11-15T10:49:55.541Z,79.66
2022-11-15T10:51:31.572Z,79.27
2022-11-15T10:53:04.200Z,79.57
2022-11-15T10:54:38.264Z,79.27
2022-11-15T10:56:10.890Z,79.21
2022-11-15T10:57:49.086Z,79.41
2022-11-15T10:59:25.604Z,79.94
2022-11-15T11:00:57.557Z,79.80
2022-11-15T11:02:32.308Z,79.40
2022-11-15T11:04:05.418Z,78.96
2022-11-15T11:05:42.365Z,78.96
2022-11-15T11:07:25.501Z,79.18
2022-11-15T11:08:58.582Z,79.68
2022-11-15T11:10:51.370Z,79.48
2022-11-15T11:12:22.897Z,79.09
2022-11-15T11:13:55.053Z,79.41
2022-11-15T11:15:27.739Z,79.50
2022-11-15T11:17:38.564Z,79.64
2022-11-15T11:19:29.089Z,79.55
2022-11-15T11:21:04.778Z,79.81
2022-11-15T11:22:39.682Z,79.52
2022-11-15T11:24:20.413Z,79.58
2022-11-15T11:26:11.575Z,79.19
2022-11-15T11:27:43.639Z,79.51
2022-11-15T11:29:16.183Z,79.52
2022-11-15T11:31:00.555Z,79.47
2022-11-15T11:32:36.286Z,79.29
2022-11-15T11:34:17.713Z,79.42
2022-11-15T11:36:12.096Z,79.20
2022-11-15T11:37:47.083Z,78.95
2022-11-15T11:39:27.906Z,78.86
2022-11-15T11:41:12.493Z,78.80
2022-11-15T11:43:03.193Z,78.87
2022-11-15T11:44:38.166Z,79.05
2022-11-15T11:46:25.455Z,79.29
2022-11-15T11:48:06.615Z,79.24
2022-11-15T11:49:38.548Z,79.08
2022-11-15T11:51:14.046Z,78.68
2022-11-15T11:53:03.424Z,79.05
2022-11-15T11:54:45.178Z,79.47
2022-11-15T11:56:36.696Z,79.77
2022-11-15T11:58:16.065Z,79.53
2022-11-15T11:59:47.943Z,79.50
2022-11-15T12:01:19.818Z,79.48
2022-11-15T12:03:10.504Z,79.34
2022-11-15T12:04:43.883Z,79.20
2022-11-15T12:06:34.592Z,79.19
2022-11-15T12:08:27.045Z,79.03
2022-11-15T12:10:17.639Z,79.04
2022-11-15T12:11:53.880Z,78.99
2022-11-15T12:13:26.768Z,78.79
2022-11-15T12:15:10.920Z,79.02
2022-11-15T12:16:44.154Z,78.76
2022-11-15T12:18:17.021Z,78.63
2022-11-15T12:19:48.919Z,78.68
2022-11-15T12:21:29.627Z,78.58
2022-11-15T12:23:04.613Z,79.20
2022-11-15T12:24:39.622Z,79.45
2022-11-15T12:28:01.263Z,79.55
2022-11-15T12:29:35.124Z,79.55
2022-11-15T12:31:07.031Z,79.68
2022-11-15T12:32:40.896Z,79.34
2022-11-15T12:34:21.789Z,79.20
2022-11-15T12:36:00.992Z,79.28
2022-11-15T12:37:45.480Z,78.75
2022-11-15T12:39:17.928Z,78.76
2022-11-15T12:41:08.550Z,78.82
2022-11-15T12:42:46.182Z,79.07
2022-11-15T12:44:33.159Z,79.24
2022-11-15T12:46:06.376Z,79.34
2022-11-15T12:47:38.614Z,79.26
2022-11-15T12:49:25.872Z,79.27
2022-11-15T12:50:59.775Z,78.92
2022-11-15T12:52:31.741Z,78.48
2022-11-15T12:54:15.388Z,78.76
2022-11-15T12:55:47.786Z,78.77
2022-11-15T12:57:29.004Z,78.69
2022-11-15T12:59:03.657Z,78.53
2022-11-15T13:00:35.817Z,78.92
2022-11-15T13:02:17.488Z,78.72
2022-11-15T13:04:25.462Z,79.04
2022-11-15T13:05:58.917Z,79.47
2022-11-15T13:07:53.692Z,79.48
2022-11-15T13:09:37.744Z,79.47
2022-11-15T13:11:28.210Z,79.42
2022-11-15T13:13:01.180Z,79.22
2022-11-15T13:14:39.122Z,79.54
2022-11-15T13:16:11.233Z,79.31
2022-11-15T13:17:55.804Z,79.27
2022-11-15T13:19:27.846Z,79.40
2022-11-15T13:21:02.633Z,79.29
2022-11-15T13:22:56.078Z,79.28
2022-11-15T13:24:28.060Z,79.63
2022-11-15T13:26:18.278Z,79.35
2022-11-15T13:27:50.770Z,79.64
2022-11-15T13:29:25.948Z,79.63
2022-11-15T13:30:58.617Z,79.53
2022-11-15T13:32:30.649Z,79.90
2022-11-15T13:34:07.308Z,79.93
2022-11-15T13:35:53.729Z,79.75
2022-11-15T13:37:25.619Z,79.74
2022-11-15T13:39:05.873Z,79.93
2022-11-15T13:40:38.759Z,79.95
2022-11-15T13:42:20.727Z,79.90
2022-11-15T13:43:53.946Z,80.00
2022-11-15T13:45:26.165Z,79.79
2022-11-15T13:47:17.371Z,79.91
2022-11-15T13:49:09.693Z,79.37
2022-11-15T13:50:44.110Z,79.60
2022-11-15T13:52:17.798Z,79.55
2022-11-15T13:53:54.105Z,79.47
2022-11-15T13:55:26.102Z,79.69
2022-11-15T13:56:59.496Z,79.44
2022-11-15T13:58:31.871Z,79.86
2022-11-15T14:00:07.888Z,80.01
2022-11-15T14:01:41.120Z,79.89
2022-11-15T14:03:16.343Z,79.66
2022-11-15T14:04:52.638Z,79.56
2022-11-15T14:06:25.633Z,79.29
2022-11-15T14:07:58.944Z,78.77
2022-11-15T14:09:31.327Z,78.89
2022-11-15T14:11:23.729Z,79.01
2022-11-15T14:12:55.726Z,79.31
2022-11-15T14:14:29.048Z,79.43
2022-11-15T14:16:17.188Z,79.41
2022-11-15T14:17:50.405Z,79.21
2022-11-15T14:19:22.502Z,79.23
2022-11-15T14:21:06.474Z,79.10
2022-11-15T14:22:39.195Z,79.00
2022-11-15T14:24:21.406Z,79.06
2022-11-15T14:25:56.768Z,78.98
2022-11-15T14:27:29.650Z,78.67
2022-11-15T14:29:20.301Z,78.69
2022-11-15T14:30:52.983Z,78.91
2022-11-15T14:32:26.451Z,78.96
2022-11-15T14:33:58.652Z,78.83
2022-11-15T14:35:30.520Z,78.85
2022-11-15T14:37:08.454Z,78.63
2022-11-15T14:38:40.412Z,78.51
2022-11-15T14:40:16.630Z,78.52
2022-11-15T14:41:48.654Z,78.67
2022-11-15T14:43:20.605Z,78.68
2022-11-15T14:44:55.918Z,78.52
2022-11-15T14:46:27.963Z,78.56
2022-11-15T14:48:00.181Z,78.47
2022-11-15T14:49:32.243Z,78.55
2022-11-15T14:51:04.272Z,78.77
2022-11-15T14:52:36.941Z,78.73
2022-11-15T14:55:40.770Z,78.87
2022-11-15T14:57:13.083Z,78.84
2022-11-15T14:58:45.156Z,78.58
2022-11-15T15:00:17.360Z,78.38
2022-11-15T15:01:49.422Z,78.49
2022-11-15T15:03:21.632Z,78.60
2022-11-15T15:04:53.914Z,78.25
2022-11-15T15:06:28.959Z,78.13
2022-11-15T15:08:01.403Z,78.26
2022-11-15T15:09:33.855Z,78.16
2022-11-15T15:11:08.675Z,78.41
2022-11-15T15:12:40.662Z,78.36
2022-11-15T15:14:12.929Z,78.38
2022-11-15T15:15:45.116Z,78.58
2022-11-15T15:17:17.427Z,78.57
2022-11-15T15:18:49.529Z,78.31
2022-11-15T15:20:21.883Z,78.46
2022-11-15T15:21:54.131Z,78.26
2022-11-15T15:23:28.496Z,78.12
2022-11-15T15:25:00.471Z,78.18
2022-11-15T15:26:35.170Z,78.48
2022-11-15T15:28:07.191Z,78.35
2022-11-15T15:29:39.441Z,78.37
2022-11-15T15:31:11.462Z,78.59
2022-11-15T15:32:43.394Z,78.37
2022-11-15T15:34:16.865Z,78.56
2022-11-15T15:35:49.182Z,78.56
2022-11-15T15:37:25.793Z,78.64
2022-11-15T15:38:57.763Z,78.73
2022-11-15T15:40:30.497Z,78.82
2022-11-15T15:42:02.588Z,79.06
2022-11-15T15:43:34.496Z,79.07
2022-11-15T15:45:07.179Z,78.89
2022-11-15T15:46:39.374Z,79.04
2022-11-15T15:48:14.701Z,78.74
2022-11-15T15:49:47.050Z,78.93
2022-11-15T15:51:21.387Z,78.88
2022-11-15T15:54:39.484Z,78.66
2022-11-15T15:56:11.467Z,78.91
2022-11-15T15:57:43.705Z,78.86
2022-11-15T15:59:15.805Z,78.91
2022-11-15T16:00:50.965Z,78.85
2022-11-15T16:02:22.958Z,78.63
2022-11-15T16:03:55.002Z,78.56
2022-11-15T16:05:27.119Z,78.59
2022-11-15T16:07:02.192Z,78.60
2022-11-15T16:08:53.311Z,78.92
2022-11-15T16:10:27.569Z,78.93
2022-11-15T16:11:59.626Z,78.88
2022-11-15T16:13:32.366Z,78.84
2022-11-15T16:15:04.639Z,78.86
2022-11-15T16:16:37.094Z,79.06
2022-11-15T16:18:10.885Z,78.95
2022-11-15T16:19:43.153Z,78.72
2022-11-15T16:21:15.266Z,78.77
2022-11-15T16:22:47.313Z,78.73
2022-11-15T16:25:57.126Z,78.72
2022-11-15T16:27:29.154Z,78.73
2022-11-15T16:29:01.224Z,78.61
2022-11-15T16:30:33.243Z,78.74
2022-11-15T16:32:05.455Z,79.12
2022-11-15T16:33:38.085Z,79.30
2022-11-15T16:35:15.442Z,79.10
2022-11-15T16:36:47.469Z,79.26
2022-11-15T16:38:19.604Z,78.94
2022-11-15T16:39:51.485Z,79.28
2022-11-15T16:41:23.613Z,79.43
2022-11-15T16:42:57.078Z,79.44
2022-11-15T16:44:29.661Z,79.34
2022-11-15T16:46:04.064Z,79.65
2022-11-15T16:47:36.094Z,79.18
2022-11-15T16:49:12.403Z,79.45
2022-11-15T16:50:44.366Z,79.20
2022-11-15T16:52:21.052Z,79.30
2022-11-15T16:53:53.455Z,79.27
2022-11-15T16:55:29.109Z,79.34
2022-11-15T16:57:03.825Z,79.43
2022-11-15T16:58:35.684Z,79.45
2022-11-15T17:00:08.058Z,79.52
2022-11-15T17:01:47.222Z,79.80
2022-11-15T17:03:19.191Z,80.01
2022-11-15T17:04:51.056Z,79.81
2022-11-15T17:06:23.630Z,79.81
2022-11-15T17:07:55.696Z,80.16
2022-11-15T17:09:27.634Z,80.02
2022-11-15T17:10:59.606Z,80.31
2022-11-15T17:12:31.724Z,80.20
2022-11-15T17:14:03.765Z,80.06
2022-11-15T17:15:35.699Z,80.37
2022-11-15T17:17:07.608Z,80.20
2022-11-15T17:18:39.848Z,80.27
2022-11-15T17:20:14.832Z,80.37
2022-11-15T17:21:47.350Z,80.39
2022-11-15T17:23:19.345Z,80.31
2022-11-15T17:24:51.333Z,80.37
2022-11-15T17:26:30.387Z,80.37
2022-11-15T17:28:03.524Z,80.12
2022-11-15T17:29:35.720Z,80.20
2022-11-15T17:31:11.526Z,80.33
2022-11-15T17:32:44.309Z,80.42
2022-11-15T17:34:16.576Z,80.38
2022-11-15T17:35:55.349Z,80.16
2022-11-15T17:37:27.135Z,80.27
2022-11-15T17:39:00.128Z,80.28
2022-11-15T17:40:32.580Z,80.45
2022-11-15T17:42:04.758Z,80.27
2022-11-15T17:43:37.143Z,80.34
2022-11-15T17:45:11.536Z,80.03
2022-11-15T17:46:43.966Z,79.93
2022-11-15T17:48:15.935Z,80.35
2022-11-15T17:49:47.828Z,80.49
2022-11-15T17:51:19.917Z,80.71
2022-11-15T17:52:51.978Z,80.57
2022-11-15T17:54:23.996Z,80.75
2022-11-15T17:55:56.695Z,80.62
2022-11-15T17:57:28.685Z,80.77
2022-11-15T17:59:00.930Z,80.82
2022-11-15T18:00:33.564Z,80.83
2022-11-15T18:03:38.710Z,80.74
2022-11-15T18:05:10.792Z,80.79
2022-11-15T18:06:43.307Z,80.64
2022-11-15T18:08:18.337Z,80.61
2022-11-15T18:09:50.496Z,80.79
2022-11-15T18:11:23.878Z,81.27
2022-11-15T18:12:55.940Z,81.09
2022-11-15T18:14:28.227Z,81.07
2022-11-15T18:16:03.276Z,80.91
2022-11-15T18:17:35.477Z,80.83
2022-11-15T18:19:13.632Z,80.54
2022-11-15T18:20:45.629Z,80.43
2022-11-15T18:22:18.890Z,80.85
2022-11-15T18:23:53.527Z,81.13
2022-11-15T18:25:25.575Z,81.19
2022-11-15T18:26:57.922Z,81.55
2022-11-15T18:28:31.456Z,81.61
2022-11-15T18:30:05.092Z,81.65
2022-11-15T18:31:37.094Z,81.70
2022-11-15T18:33:09.103Z,81.49
2022-11-15T18:34:41.318Z,81.69
2022-11-15T18:37:45.273Z,81.21
2022-11-15T18:39:17.267Z,81.32
2022-11-15T18:40:49.339Z,80.94
2022-11-15T18:42:21.460Z,81.24
2022-11-15T18:43:53.421Z,81.00
2022-11-15T18:45:25.293Z,80.85
2022-11-15T18:46:57.269Z,80.87
2022-11-15T18:48:37.523Z,80.93
2022-11-15T18:50:09.593Z,80.88
2022-11-15T18:51:44.251Z,80.81
2022-11-15T18:53:16.676Z,80.78
2022-11-15T18:54:50.964Z,80.66
2022-11-15T18:56:23.674Z,80.50
2022-11-15T18:57:55.823Z,80.79
2022-11-15T18:59:28.146Z,81.17
2022-11-15T19:01:16.429Z,81.15
2022-11-15T19:02:48.542Z,80.96
2022-11-15T19:04:21.094Z,80.95
2022-11-15T19:05:53.062Z,80.96
2022-11-15T19:07:25.025Z,80.85
2022-11-15T19:08:57.862Z,81.18
2022-11-15T19:10:29.855Z,81.22
2022-11-15T19:12:01.809Z,81.15
2022-11-15T19:13:34.264Z,80.88
2022-11-15T19:15:10.170Z,80.82
2022-11-15T19:16:45.108Z,80.93
2022-11-15T19:18:17.001Z,80.91
2022-11-15T19:19:49.209Z,81.11
2022-11-15T19:21:21.295Z,81.10
2022-11-15T19:22:54.283Z,81.07
2022-11-15T19:24:27.572Z,81.25
2022-11-15T19:26:00.196Z,81.14
2022-11-15T19:27:37.026Z,81.58
2022-11-15T19:29:14.184Z,81.57
2022-11-15T19:30:46.337Z,81.54
2022-11-15T19:32:18.245Z,81.60
2022-11-15T19:33:50.372Z,81.61
2022-11-15T19:35:22.786Z,81.32
2022-11-15T19:36:54.831Z,81.53
2022-11-15T19:38:27.043Z,81.53
2022-11-15T19:39:58.913Z,81.57
2022-11-15T19:41:31.180Z,81.68
2022-11-15T19:43:04.412Z,81.63
2022-11-15T19:44:36.383Z,81.32
2022-11-15T19:46:10.007Z,81.44
2022-11-15T19:47:41.922Z,81.60
2022-11-15T19:49:13.932Z,81.93
2022-11-15T19:50:45.821Z,81.70
2022-11-15T19:52:17.808Z,82.14
2022-11-15T19:53:50.513Z,81.95
2022-11-15T19:55:22.440Z,81.87
2022-11-15T19:56:54.736Z,81.81
2022-11-15T19:58:28.367Z,81.44
2022-11-15T20:00:05.810Z,81.67
2022-11-15T20:01:39.827Z,81.50
2022-11-15T20:03:12.213Z,81.50
2022-11-15T20:04:44.112Z,81.46
2022-11-15T20:06:19.690Z,81.36
2022-11-15T20:07:51.614Z,81.46
2022-11-15T20:09:26.165Z,81.40
2022-11-15T20:10:58.219Z,81.58
2022-11-15T20:12:30.202Z,81.60
2022-11-15T20:14:06.731Z,81.33
2022-11-15T20:15:39.138Z,81.60
2022-11-15T20:17:11.005Z,81.83
2022-11-15T20:18:43.240Z,82.17
2022-11-15T20:20:15.225Z,81.98
2022-11-15T20:21:47.255Z,82.13
2022-11-15T20:23:19.378Z,81.82
2022-11-15T20:24:51.526Z,81.69
2022-11-15T20:26:23.565Z,81.77
2022-11-15T20:27:55.604Z,81.81
2022-11-15T20:29:27.743Z,81.63
2022-11-15T20:31:00.180Z,81.65
2022-11-15T20:32:32.298Z,81.80
2022-11-15T20:34:04.197Z,82.02
2022-11-15T20:35:36.105Z,81.67
2022-11-15T20:37:07.991Z,81.77
2022-11-15T20:38:39.936Z,81.62
2022-11-15T20:40:14.937Z,81.62
2022-11-15T20:41:46.819Z,81.58
2022-11-15T20:43:19.490Z,81.78